Time;durP1;ratioP1;P1;durP2;ratioP2;P2;SDS_P1;SDS_P2;PMS_P1;PMS_P2;Temp;Humidity;BMP_temperature;BMP_pressure;BME280_temperature;BME280_humidity;BME280_pressure;Samples;Min_cycle;Max_cycle;Signal;HPM_P1;HPM_P2
2022/04/04 00:02:21;;;;;;;6.03;3.70;;;;;;;-2.27;67.94;100056.22;4978184;28;20442;-65
2022/04/04 00:04:47;;;;;;;3.63;1.83;;;;;;;-2.39;67.80;100034.34;4977947;28;20031;-65
2022/04/04 00:07:12;;;;;;;4.23;1.80;;;;;;;-2.27;68.06;100051.00;4975842;28;20039;-66
2022/04/04 00:09:39;;;;;;;3.10;1.90;;;;;;;-2.31;68.33;100054.72;4977767;28;20046;-65
2022/04/04 00:12:05;;;;;;;6.43;2.10;;;;;;;-2.36;68.15;100047.19;4975892;28;20125;-66
2022/04/04 00:14:30;;;;;;;2.23;2.03;;;;;;;-2.36;68.08;100041.13;4975613;28;20130;-65
2022/04/04 00:16:56;;;;;;;3.13;1.80;;;;;;;-2.32;67.92;100050.44;4975871;28;20077;-66
2022/04/04 00:19:22;;;;;;;5.83;1.83;;;;;;;-2.35;68.10;100048.00;4975838;28;20077;-66
2022/04/04 00:21:48;;;;;;;7.50;2.28;;;;;;;-2.37;68.14;100047.28;4975524;28;20038;-67
2022/04/04 00:24:13;;;;;;;3.83;1.80;;;;;;;-2.41;67.92;100044.03;4958747;28;20050;-66
2022/04/04 00:26:39;;;;;;;3.30;1.83;;;;;;;-2.41;68.06;100045.81;4976034;28;20066;-67
2022/04/04 00:29:04;;;;;;;2.50;2.10;;;;;;;-2.44;67.29;100039.03;4975368;28;20533;-69
2022/04/04 00:31:30;;;;;;;2.53;1.70;;;;;;;-2.39;66.81;100036.13;4975292;28;20034;-66
2022/04/04 00:33:55;;;;;;;4.37;2.37;;;;;;;-2.38;66.78;100040.38;4975334;28;20049;-66
2022/04/04 00:36:21;;;;;;;8.43;3.13;;;;;;;-2.39;66.49;100031.72;4975433;28;20038;-66
2022/04/04 00:38:47;;;;;;;2.47;2.27;;;;;;;-2.39;66.00;100034.34;4975397;28;20035;-67
2022/04/04 00:41:17;;;;;;;3.77;2.00;;;;;;;-2.47;65.76;100004.50;4976039;28;20513;-66
2022/04/04 00:43:43;;;;;;;3.65;2.10;;;;;;;-2.23;66.16;100027.22;4975131;28;20045;-66
2022/04/04 00:46:08;;;;;;;8.70;2.07;;;;;;;-2.11;65.63;100037.78;4980001;28;20038;-66
2022/04/04 00:48:34;;;;;;;8.57;2.03;;;;;;;-2.04;65.24;100037.28;4982817;28;20133;-66
2022/04/04 00:51:00;;;;;;;4.63;2.53;;;;;;;-2.01;65.01;100042.31;4982808;28;20041;-67
2022/04/04 00:53:26;;;;;;;5.63;2.30;;;;;;;-2.08;64.47;100017.53;4976287;28;20035;-68
2022/04/04 00:55:54;;;;;;;6.00;2.40;;;;;;;-1.96;64.62;100027.19;4975540;28;20121;-65
2022/04/04 00:58:20;;;;;;;5.47;2.63;;;;;;;-1.95;64.56;100025.41;4974940;28;20034;-68
2022/04/04 01:00:48;;;;;;;3.40;2.20;;;;;;;-1.99;64.48;100018.72;4975407;28;20077;-66
2022/04/04 01:03:17;;;;;;;5.90;1.98;;;;;;;-2.07;65.03;100015.75;4975038;28;20490;-68
2022/04/04 01:05:46;;;;;;;3.70;1.95;;;;;;;-2.08;65.52;100020.16;4975054;28;20034;-68
2022/04/04 01:08:14;;;;;;;6.22;2.78;;;;;;;-2.11;64.63;100025.56;4974793;28;20405;-67
2022/04/04 01:10:42;;;;;;;3.85;2.30;;;;;;;-2.12;64.86;100028.28;4976465;28;20097;-66
2022/04/04 01:13:09;;;;;;;1.67;1.55;;;;;;;-2.26;64.69;99990.91;4975857;28;20058;-66
2022/04/04 01:15:35;;;;;;;2.90;1.95;;;;;;;-2.08;64.52;100011.50;4974740;28;20127;-68
2022/04/04 01:18:05;;;;;;;2.97;1.80;;;;;;;-1.92;63.91;100020.00;4957394;28;20034;-68
2022/04/04 01:20:31;;;;;;;2.97;1.70;;;;;;;-1.88;62.81;100006.63;4974577;28;20153;-66
2022/04/04 01:22:57;;;;;;;2.03;1.80;;;;;;;-1.81;62.30;100009.66;4974737;28;20081;-66
2022/04/04 01:25:28;;;;;;;3.15;1.90;;;;;;;-1.81;62.91;100012.28;4974648;28;20104;-67
2022/04/04 01:27:55;;;;;;;6.75;2.53;;;;;;;-1.91;62.16;100012.06;4977045;28;20031;-68
2022/04/04 01:30:22;;;;;;;2.55;1.90;;;;;;;-1.96;62.84;100008.09;4976826;28;20065;-66
2022/04/04 01:32:49;;;;;;;2.13;1.70;;;;;;;-2.12;62.40;100000.41;4975950;28;20083;-68
2022/04/04 01:35:18;;;;;;;3.85;1.70;;;;;;;-2.15;62.58;100002.41;4974324;28;20407;-67
2022/04/04 01:37:44;;;;;;;5.00;2.13;;;;;;;-2.20;62.40;99997.50;4974051;28;20039;-67
2022/04/04 01:40:10;;;;;;;5.07;2.03;;;;;;;-2.27;62.60;100004.03;4974816;28;20034;-67
2022/04/04 01:42:37;;;;;;;2.40;2.05;;;;;;;-2.30;63.05;99999.03;4974354;28;20035;-66
2022/04/04 01:45:08;;;;;;;2.63;2.33;;;;;;;-2.32;63.16;100001.72;4974392;28;20046;-67
2022/04/04 01:47:34;;;;;;;2.35;2.10;;;;;;;-2.39;63.04;99995.22;4974006;28;20383;-67
2022/04/04 01:49:59;;;;;;;7.72;2.05;;;;;;;-2.36;63.36;100000.25;4974138;28;20441;-66
2022/04/04 01:52:25;;;;;;;2.80;2.10;;;;;;;-2.36;63.85;100000.25;4973841;28;20039;-66
2022/04/04 01:54:51;;;;;;;2.20;1.93;;;;;;;-2.46;64.45;99985.31;4974320;28;20043;-66
2022/04/04 01:57:16;;;;;;;4.47;1.77;;;;;;;-2.49;64.47;99983.72;4974924;28;20042;-67
2022/04/04 01:59:42;;;;;;;4.40;1.93;;;;;;;-2.46;65.61;99993.97;4973816;28;20046;-67
2022/04/04 02:02:08;;;;;;;4.80;2.17;;;;;;;-2.48;66.11;99989.78;4973687;28;20478;-68
2022/04/04 02:04:33;;;;;;;3.37;2.03;;;;;;;-2.51;66.87;99990.81;4972783;28;20062;-67
2022/04/04 02:06:59;;;;;;;6.03;2.40;;;;;;;-2.51;67.58;99990.81;4974028;28;20057;-66
2022/04/04 02:09:26;;;;;;;6.47;3.37;;;;;;;-2.55;67.73;99984.13;4973848;28;20078;-67
2022/04/04 02:11:52;;;;;;;2.95;2.20;;;;;;;-2.52;67.86;99987.38;4973597;28;20453;-67
2022/04/04 02:14:18;;;;;;;5.10;2.63;;;;;;;-2.52;68.50;99991.75;4973781;28;20042;-67
2022/04/04 02:16:45;;;;;;;5.27;2.77;;;;;;;-2.51;69.18;99986.44;4956189;28;20073;-67
2022/04/04 02:19:11;;;;;;;7.43;4.22;;;;;;;-2.54;69.63;99983.19;4956117;28;20405;-68
2022/04/04 02:21:37;;;;;;;4.13;3.00;;;;;;;-2.71;70.18;99954.75;4972280;28;20047;-68
2022/04/04 02:24:04;;;;;;;6.10;2.97;;;;;;;-2.64;70.41;99976.88;4973541;28;20074;-67
2022/04/04 02:26:29;;;;;;;6.28;2.95;;;;;;;-2.62;71.02;99982.81;4974945;28;20502;-67
2022/04/04 02:28:55;;;;;;;6.40;3.60;;;;;;;-2.96;71.39;99924.22;4973442;28;20046;-68
2022/04/04 02:31:20;;;;;;;4.90;3.53;;;;;;;-2.67;71.75;99964.88;4973491;28;20031;-67
2022/04/04 02:33:46;;;;;;;6.53;3.53;;;;;;;-2.56;71.93;99977.25;4973641;28;20048;-67
2022/04/04 02:36:11;;;;;;;8.43;3.80;;;;;;;-2.57;71.51;99975.56;4973199;28;20043;-67
2022/04/04 02:38:37;;;;;;;6.93;3.10;;;;;;;-2.57;71.89;99970.34;4973400;28;20730;-67
2022/04/04 02:41:04;;;;;;;6.83;3.37;;;;;;;-2.59;71.96;99978.28;4974597;28;20486;-67
2022/04/04 02:43:29;;;;;;;4.55;3.22;;;;;;;-2.64;72.97;99967.28;4973263;28;20147;-67
2022/04/04 02:45:55;;;;;;;5.43;3.00;;;;;;;-2.73;72.97;99946.19;4973258;28;20150;-68
2022/04/04 02:48:21;;;;;;;5.28;2.85;;;;;;;-2.61;73.33;99968.84;4973306;28;20095;-67
2022/04/04 02:50:48;;;;;;;7.82;4.10;;;;;;;-2.61;74.00;99974.91;4973036;28;20054;-66
2022/04/04 02:53:13;;;;;;;7.43;3.10;;;;;;;-2.58;73.79;99976.50;4973057;28;20113;-67
2022/04/04 02:58:23;;;;;;;4.72;3.30;;;;;;;-2.67;75.24;99966.66;4973553;28;20482;-68
2022/04/04 03:00:49;;;;;;;6.00;3.20;;;;;;;-2.69;75.47;99965.91;4973126;28;20043;-67
2022/04/04 03:03:14;;;;;;;6.87;3.57;;;;;;;-2.69;75.52;99965.91;4955810;28;20037;-68
2022/04/04 03:05:40;;;;;;;3.63;3.20;;;;;;;-2.68;75.94;99964.97;4973359;28;20066;-68
2022/04/04 03:08:06;;;;;;;8.37;4.13;;;;;;;-2.77;75.90;99949.94;4974585;28;20145;-68
2022/04/04 03:10:32;;;;;;;5.95;3.53;;;;;;;-2.70;76.56;99970.28;4973370;28;20046;-67
2022/04/04 03:13:05;;;;;;;7.20;3.42;;;;;;;-2.70;76.69;99970.28;4973665;28;20159;-68
2022/04/04 03:15:34;;;;;;;7.38;3.47;;;;;;;-2.70;77.55;99961.63;4972998;28;20058;-66
2022/04/04 03:17:59;;;;;;;;;;;;;;;-2.64;77.09;99974.28;4973734;28;20502;-68
2022/04/04 03:20:26;;;;;;;6.63;3.10;;;;;;;-2.73;77.15;99960.06;4973066;28;19918;-67
2022/04/04 03:22:54;;;;;;;6.03;3.42;;;;;;;-2.67;76.82;99964.03;4971595;28;20097;-67
2022/04/04 03:25:19;;;;;;;5.22;3.20;;;;;;;-2.68;77.00;99963.22;4973285;28;20042;-67
2022/04/04 03:27:47;;;;;;;6.60;2.97;;;;;;;-2.65;76.75;99964.78;4955944;28;20331;-66
2022/04/04 03:30:20;;;;;;;5.57;3.13;;;;;;;-2.63;77.34;99960.31;4973533;28;20402;-67
2022/04/04 03:32:47;;;;;;;4.45;3.60;;;;;;;-2.59;77.51;99962.63;4976701;28;20065;-67
2022/04/04 03:35:14;;;;;;;4.78;4.22;;;;;;;-2.70;76.71;99940.78;4976508;28;20081;-68
2022/04/04 03:37:42;;;;;;;6.22;3.60;;;;;;;-2.59;77.29;99952.22;4976452;28;20474;-69
2022/04/04 03:40:14;;;;;;;7.22;3.47;;;;;;;-2.48;77.16;99961.94;4976624;28;20039;-67
2022/04/04 03:42:44;;;;;;;10.35;3.90;;;;;;;-2.43;77.34;99964.25;4977781;28;20137;-68
2022/04/04 03:45:14;;;;;;;7.30;5.15;;;;;;;-2.40;77.37;99957.06;4976979;28;20035;-66
2022/04/04 03:47:41;;;;;;;4.38;3.60;;;;;;;-2.37;76.67;99962.06;4976471;28;20043;-67
2022/04/04 03:50:08;;;;;;;5.40;3.63;;;;;;;-2.27;76.41;99963.16;4976458;28;20046;-68
2022/04/04 03:52:34;;;;;;;6.82;3.58;;;;;;;-2.20;76.55;99960.97;4976597;28;20410;-67
2022/04/04 03:55:00;;;;;;;4.90;3.47;;;;;;;-2.19;76.91;99966.09;4976151;28;20037;-68
2022/04/04 03:57:26;;;;;;;9.57;3.63;;;;;;;-2.18;76.46;99959.09;4976944;28;20030;-68
2022/04/04 03:59:51;;;;;;;4.90;2.90;;;;;;;-2.05;76.52;99964.31;4976417;28;20133;-67
2022/04/04 04:02:17;;;;;;;4.00;3.07;;;;;;;-2.09;75.99;99957.63;4976302;28;20537;-68
2022/04/04 04:04:44;;;;;;;5.83;4.03;;;;;;;-2.03;76.60;99959.84;4976158;28;20494;-68
2022/04/04 04:07:15;;;;;;;5.38;3.40;;;;;;;-1.99;76.16;99962.16;4975729;28;20046;-67
2022/04/04 04:10:07;;;;;;;9.10;4.63;;;;;;;-1.85;76.01;99957.78;4975991;28;20561;-67
2022/04/04 04:12:32;;;;;;;3.75;2.97;;;;;;;-1.80;75.09;99953.06;4978530;28;20068;-68
2022/04/04 04:14:58;;;;;;;5.00;3.10;;;;;;;-1.74;75.25;99950.03;4976098;28;20187;-73
2022/04/04 04:17:24;;;;;;;4.95;3.20;;;;;;;-1.59;74.23;99959.47;4977593;28;20039;-68
2022/04/04 04:22:35;;;;;;;4.90;3.53;;;;;;;-1.48;74.07;99958.72;4975391;28;20684;-66
2022/04/04 04:25:01;;;;;;;7.83;3.53;;;;;;;-1.41;74.40;99954.75;4975749;28;20052;-68
2022/04/04 04:27:27;;;;;;;5.88;3.05;;;;;;;-1.37;73.78;99961.44;4976555;28;20037;-67
2022/04/04 04:29:52;;;;;;;4.33;2.97;;;;;;;-1.31;73.75;99954.00;4977227;28;20061;-63
2022/04/04 04:32:19;;;;;;;5.23;3.83;;;;;;;-1.30;73.40;99947.00;4975589;28;20034;-62
2022/04/04 04:34:50;;;;;;;5.22;3.35;;;;;;;-1.22;73.77;99956.91;4975393;28;20034;-68
2022/04/04 04:37:20;;;;;;;7.07;3.77;;;;;;;-1.18;73.38;99964.41;4975669;28;20078;-67
2022/04/04 04:39:46;;;;;;;3.17;2.80;;;;;;;-1.21;73.58;99948.97;4975864;28;20279;-75
2022/04/04 04:42:11;;;;;;;5.93;3.30;;;;;;;-1.51;73.18;99901.47;4974461;28;20178;-68
2022/04/04 04:44:37;;;;;;;6.60;3.03;;;;;;;-1.20;73.79;99949.78;4975216;28;20383;-64
2022/04/04 04:47:03;;;;;;;10.17;4.43;;;;;;;-1.13;73.34;99943.22;4976622;28;20162;-66
2022/04/04 04:49:29;;;;;;;8.40;3.10;;;;;;;-1.07;73.16;99943.59;4982800;28;20137;-71
2022/04/04 04:51:55;;;;;;;9.57;3.57;;;;;;;-1.03;73.18;99947.69;4975097;28;20301;-71
2022/04/04 04:54:21;;;;;;;4.43;3.42;;;;;;;-0.94;72.88;99943.56;4975254;28;20266;-72
2022/04/04 04:56:46;;;;;;;6.20;3.53;;;;;;;-0.94;73.09;99947.00;4976241;28;20090;-70
2022/04/04 04:59:13;;;;;;;6.50;3.17;;;;;;;-0.96;73.43;99927.16;4975907;28;20031;-71
2022/04/04 05:01:39;;;;;;;7.03;3.78;;;;;;;-0.90;72.90;99936.34;4957507;28;20070;-71
2022/04/04 05:04:05;;;;;;;7.60;3.23;;;;;;;-0.81;73.24;99941.75;4975400;28;20094;-72
2022/04/04 05:06:31;;;;;;;9.73;4.53;;;;;;;-0.73;73.06;99944.66;4968004;28;20277;-72
2022/04/04 05:09:01;;;;;;;6.00;4.10;;;;;;;-0.67;72.44;99938.13;4993708;28;20549;-71
2022/04/04 05:11:27;;;;;;;7.87;4.40;;;;;;;-0.59;72.98;99941.00;4995066;28;20038;-70
2022/04/04 05:13:52;;;;;;;6.03;3.80;;;;;;;-0.56;72.22;99940.81;4994489;28;20764;-70
2022/04/04 05:16:43;;;;;;;8.10;3.70;;;;;;;-0.51;71.55;99943.94;4994417;28;20052;-71
2022/04/04 05:19:10;;;;;;;8.00;4.73;;;;;;;-0.48;71.66;99933.25;4976795;28;20413;-70
2022/04/04 05:21:35;;;;;;;6.23;4.07;;;;;;;-0.47;71.38;99921.81;4994177;28;20297;-69
2022/04/04 05:24:01;;;;;;;6.50;3.90;;;;;;;-0.34;71.49;99930.44;4976985;28;20345;-66
2022/04/04 05:26:27;;;;;;;10.87;4.40;;;;;;;-0.31;70.53;99930.19;4995136;28;20375;-69
2022/04/04 05:28:52;;;;;;;10.37;3.87;;;;;;;-0.21;70.93;99934.78;4979941;28;20811;-65
2022/04/04 05:31:18;;;;;;;6.00;4.37;;;;;;;-0.32;70.65;99897.13;4995055;28;20034;-68
2022/04/04 05:33:43;;;;;;;13.43;4.57;;;;;;;-0.17;70.26;99910.88;4976832;28;20471;-67
2022/04/04 05:36:08;;;;;;;6.60;4.10;;;;;;;-0.09;70.40;99933.84;4994065;28;20046;-72
2022/04/04 05:38:34;;;;;;;18.57;4.97;;;;;;;-0.04;70.01;99926.47;4993764;28;20057;-69
2022/04/04 05:41:00;;;;;;;15.27;4.80;;;;;;;0.03;69.90;99919.00;4993595;28;20508;-65
2022/04/04 05:43:26;;;;;;;9.47;4.60;;;;;;;0.18;69.23;99926.53;4993850;28;20125;-69
2022/04/04 05:45:53;;;;;;;10.37;4.73;;;;;;;0.22;68.18;99927.94;4996074;28;20292;-68
2022/04/04 05:48:18;;;;;;;11.57;4.73;;;;;;;0.32;68.30;99917.63;4994756;28;20588;-62
2022/04/04 05:50:44;;;;;;;6.90;4.47;;;;;;;0.40;68.28;99917.03;4995179;28;20301;-65
2022/04/04 05:53:09;;;;;;;10.13;4.83;;;;;;;0.32;68.02;99906.31;4995351;28;20042;-69
2022/04/04 05:55:35;;;;;;;17.90;4.60;;;;;;;0.27;67.65;99904.84;4982964;28;20035;-65
2022/04/04 05:58:00;;;;;;;10.40;5.83;;;;;;;0.39;67.61;99912.75;4974852;28;20038;-71
2022/04/04 06:00:26;;;;;;;9.83;5.10;;;;;;;0.36;67.29;99892.84;4974001;28;20034;-74
2022/04/04 06:02:52;;;;;;;12.67;4.60;;;;;;;0.43;67.30;99887.97;4973802;28;20053;-77
2022/04/04 06:05:17;;;;;;;13.17;5.03;;;;;;;0.61;66.75;99913.59;4956749;28;20141;-74
2022/04/04 06:07:45;;;;;;;12.70;5.97;;;;;;;0.70;66.30;99898.91;4973836;28;20085;-69
2022/04/04 06:10:11;;;;;;;9.47;5.30;;;;;;;0.82;65.93;99895.31;4973704;28;20117;-71
2022/04/04 06:12:38;;;;;;;7.20;4.57;;;;;;;0.94;65.71;99893.53;4974202;28;20274;-70
2022/04/04 06:15:04;;;;;;;14.60;5.10;;;;;;;1.06;64.67;99900.41;4973510;28;20278;-72
2022/04/04 06:17:30;;;;;;;12.37;4.77;;;;;;;1.16;63.93;99897.88;4975793;28;20357;-69
2022/04/04 06:20:22;;;;;;;12.00;4.67;;;;;;;1.27;63.70;99897.84;4958078;28;20278;-73
2022/04/04 06:22:48;;;;;;;15.93;5.60;;;;;;;1.23;64.20;99891.19;4940100;28;20042;-74
2022/04/04 06:25:14;;;;;;;27.47;9.20;;;;;;;1.22;63.66;99897.38;4973561;28;20254;-73
2022/04/04 06:27:40;;;;;;;26.33;8.50;;;;;;;1.20;63.70;99894.06;4975047;28;20394;-68
2022/04/04 06:30:07;;;;;;;25.93;11.50;;;;;;;1.16;64.08;99879.53;4957326;28;20274;-67
2022/04/04 06:32:33;;;;;;;31.07;12.50;;;;;;;1.24;63.92;99885.81;4985056;28;20094;-68
2022/04/04 06:34:59;;;;;;;43.47;12.87;;;;;;;1.22;63.70;99877.25;4957708;28;20655;-71
2022/04/04 06:37:24;;;;;;;16.43;7.03;;;;;;;1.23;63.13;99878.06;4973885;28;20278;-63
2022/04/04 06:39:50;;;;;;;18.70;6.17;;;;;;;1.26;62.62;99883.06;4973593;28;20805;-65
2022/04/04 06:42:15;;;;;;;18.30;6.40;;;;;;;1.27;62.76;99874.22;4973292;28;20039;-67
2022/04/04 06:44:42;;;;;;;17.83;4.90;;;;;;;1.33;62.53;99884.22;4973983;28;20070;-69
2022/04/04 06:47:09;;;;;;;16.30;5.50;;;;;;;1.31;61.57;99873.03;4973269;28;20034;-71
2022/04/04 06:49:34;;;;;;;26.77;7.53;;;;;;;1.36;62.13;99878.72;4973716;28;20262;-72
2022/04/04 06:51:59;;;;;;;16.00;4.77;;;;;;;1.36;61.37;99878.72;4974687;28;20806;-66
2022/04/04 06:54:27;;;;;;;17.27;3.70;;;;;;;1.36;60.05;99881.34;4957337;28;20035;-65
2022/04/04 06:56:53;;;;;;;34.97;5.13;;;;;;;1.42;59.26;99878.22;4972358;28;20038;-66
2022/04/04 06:59:19;;;;;;;12.73;3.93;;;;;;;1.49;58.26;99883.81;4976962;28;20262;-71
2022/04/04 07:01:45;;;;;;;27.77;5.90;;;;;;;1.49;57.99;99868.91;4972968;28;20782;-68
2022/04/04 07:04:11;;;;;;;22.70;3.67;;;;;;;1.54;57.53;99873.75;4972889;28;20277;-66
2022/04/04 07:06:37;;;;;;;13.57;3.73;;;;;;;1.54;57.16;99871.97;4958679;28;20049;-67
2022/04/04 07:09:04;;;;;;;12.33;4.87;;;;;;;1.56;56.94;99879.72;4959591;28;20141;-67
2022/04/04 07:11:29;;;;;;;12.60;5.23;;;;;;;1.54;57.47;99861.47;4976929;28;20278;-63
2022/04/04 07:13:56;;;;;;;12.87;3.77;;;;;;;1.67;57.03;99865.69;4977692;28;20285;-65
2022/04/04 07:16:21;;;;;;;10.37;3.23;;;;;;;1.79;56.29;99864.69;4976975;28;20039;-73
2022/04/04 07:18:48;;;;;;;16.60;4.40;;;;;;;1.52;56.46;99810.91;4959486;28;20785;-72
2022/04/04 07:21:15;;;;;;;10.63;2.93;;;;;;;1.87;55.94;99857.00;4976959;28;20046;-67
2022/04/04 07:23:41;;;;;;;20.13;3.33;;;;;;;2.07;55.83;99869.28;4976677;28;20270;-67
2022/04/04 07:26:07;;;;;;;15.47;3.33;;;;;;;2.13;55.26;99855.63;4976839;28;20273;-69
2022/04/04 07:28:33;;;;;;;11.43;4.33;;;;;;;2.11;54.87;99854.94;4977703;28;20274;-71
2022/04/04 07:30:59;;;;;;;27.23;4.63;;;;;;;2.14;55.16;99844.16;4976906;28;20581;-69
2022/04/04 07:33:24;;;;;;;8.00;3.33;;;;;;;2.22;54.92;99850.53;4976852;28;20297;-66
2022/04/04 07:35:50;;;;;;;24.57;5.80;;;;;;;2.24;54.68;99844.19;4976346;28;20053;-69
2022/04/04 07:38:16;;;;;;;13.63;3.20;;;;;;;2.27;53.84;99832.56;4982975;28;20096;-69
2022/04/04 07:40:41;;;;;;;20.83;4.30;;;;;;;2.41;54.73;99840.94;4980884;28;20050;-73
2022/04/04 07:43:08;;;;;;;11.10;2.73;;;;;;;2.50;54.26;99826.16;4984293;28;20497;-65
2022/04/04 07:45:34;;;;;;;9.23;4.00;;;;;;;2.70;53.76;99830.53;4989628;28;20061;-70
2022/04/04 07:48:01;;;;;;;13.30;3.33;;;;;;;2.89;53.66;99824.47;4979267;28;20269;-68
2022/04/04 07:50:27;;;;;;;12.10;2.53;;;;;;;3.01;52.62;99820.75;4982346;28;20274;-68
2022/04/04 07:52:53;;;;;;;14.77;2.93;;;;;;;2.86;52.55;99768.66;4981311;28;20281;-68
2022/04/04 07:55:19;;;;;;;17.27;2.93;;;;;;;3.31;51.96;99829.47;4989732;28;20133;-67
2022/04/04 07:57:45;;;;;;;15.10;2.53;;;;;;;3.23;51.50;99822.28;4989729;28;20356;-70
2022/04/04 08:00:14;;;;;;;8.93;2.73;;;;;;;3.26;51.68;99816.75;4991259;28;20278;-70
2022/04/04 08:02:40;;;;;;;7.77;1.90;;;;;;;3.21;51.82;99813.69;4984086;28;20052;-69
2022/04/04 08:05:08;;;;;;;15.10;3.20;;;;;;;3.32;52.09;99813.53;4983435;28;20277;-69
2022/04/04 08:07:36;;;;;;;11.77;3.17;;;;;;;3.43;51.96;99808.13;4982801;28;20766;-67
2022/04/04 08:10:05;;;;;;;15.10;3.27;;;;;;;3.68;51.22;99805.88;4981122;28;20658;-66
2022/04/04 08:12:31;;;;;;;13.07;2.70;;;;;;;3.90;50.86;99797.66;4991907;28;20369;-68
2022/04/04 08:14:57;;;;;;;17.83;3.37;;;;;;;4.21;48.69;99802.66;4989736;28;20310;-69
2022/04/04 08:17:23;;;;;;;6.27;2.17;;;;;;;4.24;48.25;99802.38;4978699;28;20034;-66
2022/04/04 08:19:50;;;;;;;16.47;2.93;;;;;;;4.22;49.33;99805.16;4988908;28;20046;-70
2022/04/04 08:22:16;;;;;;;10.00;1.50;;;;;;;4.14;48.16;99798.97;4984679;28;20297;-66
2022/04/04 08:24:42;;;;;;;15.33;2.90;;;;;;;4.18;48.01;99798.53;4986820;28;20298;-64
2022/04/04 08:27:10;;;;;;;11.90;2.87;;;;;;;4.14;49.45;99791.88;4967066;28;20281;-65
2022/04/04 08:29:37;;;;;;;10.20;1.88;;;;;;;4.27;47.59;99799.44;4975063;28;20046;-68
2022/04/04 08:32:03;;;;;;;30.87;4.13;;;;;;;4.09;47.64;99790.66;4983562;28;20038;-67
2022/04/04 08:34:29;;;;;;;29.17;3.43;;;;;;;3.97;48.80;99793.47;4980152;28;20282;-68
2022/04/04 08:36:55;;;;;;;39.07;4.40;;;;;;;3.96;48.96;99785.69;4982098;28;20272;-69
2022/04/04 08:39:20;;;;;;;7.07;2.53;;;;;;;4.09;48.30;99782.75;4984134;28;20270;-71
2022/04/04 08:41:46;;;;;;;14.60;2.23;;;;;;;4.11;48.33;99784.28;4980900;28;20101;-68
2022/04/04 08:44:14;;;;;;;5.43;2.40;;;;;;;4.32;48.94;99773.47;4965660;28;20498;-68
2022/04/04 08:46:41;;;;;;;7.93;2.22;;;;;;;4.42;47.70;99779.53;4982390;28;20046;-65
2022/04/04 08:49:12;;;;;;;11.23;2.97;;;;;;;4.35;48.14;99779.31;4983247;28;20405;-68
2022/04/04 08:51:38;;;;;;;11.60;2.17;;;;;;;4.39;47.95;99773.75;4980099;28;20306;-64
2022/04/04 08:54:04;;;;;;;43.63;4.63;;;;;;;4.56;48.48;99786.13;4988204;28;20280;-68
2022/04/04 08:56:30;;;;;;;15.53;2.73;;;;;;;4.68;47.90;99769.13;4982615;28;20046;-67
2022/04/04 08:58:56;;;;;;;10.27;3.37;;;;;;;4.75;48.05;99778.09;4982307;28;20270;-63
2022/04/04 09:01:27;;;;;;;10.63;3.13;;;;;;;5.01;47.65;99780.81;4984265;28;20034;-68
2022/04/04 09:04:01;;;;;;;4.77;1.40;;;;;;;5.03;46.44;99773.59;4980080;28;20306;-70
2022/04/04 09:06:30;;;;;;;6.37;2.47;;;;;;;4.96;46.88;99777.81;4978986;28;20670;-63
2022/04/04 09:08:57;;;;;;;12.97;2.40;;;;;;;4.94;47.63;99779.78;4883464;28;2120356;-67
2022/04/04 09:11:23;;;;;;;10.43;2.63;;;;;;;5.08;46.51;99775.75;4973744;28;20050;-64
2022/04/04 09:14:09;;;;;;;6.00;1.60;;;;;;;5.20;46.85;99770.13;4974914;28;20274;-68
2022/04/04 09:16:35;;;;;;;10.53;2.00;;;;;;;5.07;46.29;99748.53;4974281;28;20528;-71
2022/04/04 09:19:00;;;;;;;9.60;1.57;;;;;;;5.29;46.16;99766.56;4974718;28;20773;-65
2022/04/04 09:21:31;;;;;;;5.57;2.10;;;;;;;5.39;46.22;99762.97;4974220;28;20302;-67
2022/04/04 09:23:59;;;;;;;5.60;2.37;;;;;;;5.57;46.13;99755.88;4957013;28;20812;-68
2022/04/04 09:26:30;;;;;;;10.87;2.10;;;;;;;5.58;46.18;99754.88;4974812;28;20277;-67
2022/04/04 09:28:58;;;;;;;10.50;1.70;;;;;;;5.25;45.67;99761.75;4973770;28;20774;-73
2022/04/04 09:31:24;;;;;;;6.00;2.53;;;;;;;4.79;47.18;99752.25;4975790;28;20283;-64
2022/04/04 09:33:50;;;;;;;9.50;2.07;;;;;;;4.48;48.16;99746.47;4974811;28;20282;-69
2022/04/04 09:36:16;;;;;;;61.73;7.13;;;;;;;4.32;48.92;99750.56;4974886;28;20049;-66
2022/04/04 09:38:59;;;;;;;17.83;3.30;;;;;;;4.31;49.16;99745.44;4974676;28;20270;-71
2022/04/04 09:41:27;;;;;;;9.23;1.60;;;;;;;4.09;49.46;99724.78;4975215;28;20043;-68
2022/04/04 09:43:55;;;;;;;2.43;1.60;;;;;;;3.91;50.34;99696.56;4975134;28;20281;-71
2022/04/04 09:46:21;;;;;;;6.40;3.20;;;;;;;3.97;50.51;99732.88;4975176;28;20755;-70
2022/04/04 09:49:09;;;;;;;2.33;2.13;;;;;;;3.92;50.55;99737.75;4974934;28;20289;-70
2022/04/04 09:51:44;;;;;;;8.60;1.63;;;;;;;3.91;50.87;99725.56;4974473;28;20035;-69
2022/04/04 09:54:19;;;;;;;6.60;1.70;;;;;;;3.88;51.39;99723.22;4974530;28;20038;-68
2022/04/04 09:56:46;;;;;;;13.60;2.20;;;;;;;3.99;51.26;99720.38;4974483;28;20332;-68
2022/04/04 09:59:14;;;;;;;4.03;1.30;;;;;;;3.98;50.79;99713.44;4974220;28;20312;-69
2022/04/04 10:01:45;;;;;;;2.97;1.73;;;;;;;4.07;51.60;99717.03;4975056;28;20907;-71
2022/04/04 10:04:14;;;;;;;7.00;2.30;;;;;;;4.22;51.62;99717.34;4958718;28;21001;-69
2022/04/04 10:06:42;;;;;;;6.07;2.07;;;;;;;4.41;51.50;99711.97;4975254;28;20266;-67
2022/04/04 10:09:08;;;;;;;7.43;3.28;;;;;;;4.58;50.66;99705.88;4974019;28;20289;-68
2022/04/04 10:11:38;;;;;;;8.27;2.33;;;;;;;4.79;49.59;99715.31;4973664;28;20043;-68
2022/04/04 10:14:03;;;;;;;10.90;2.10;;;;;;;4.87;49.86;99712.75;4973479;28;20066;-67
2022/04/04 10:16:31;;;;;;;6.00;2.77;;;;;;;4.94;49.29;99708.53;4974071;28;20753;-68
2022/04/04 10:18:57;;;;;;;3.33;2.35;;;;;;;5.05;49.93;99705.66;4973546;28;20089;-67
2022/04/04 10:21:25;;;;;;;12.20;2.17;;;;;;;5.14;48.99;99704.72;4973315;28;20055;-68
2022/04/04 10:23:53;;;;;;;8.37;2.07;;;;;;;5.03;49.72;99709.41;4973525;28;20293;-67
2022/04/04 10:26:21;;;;;;;5.05;2.05;;;;;;;4.71;49.91;99680.97;4973736;28;20270;-67
2022/04/04 10:28:47;;;;;;;8.70;2.17;;;;;;;4.75;50.60;99701.59;4973078;28;20402;-67
2022/04/04 10:31:23;;;;;;;11.13;3.27;;;;;;;4.66;51.57;99699.88;4973952;28;20267;-69
2022/04/04 10:33:53;;;;;;;8.00;1.80;;;;;;;4.56;51.62;99692.00;4973460;28;20271;-63
2022/04/04 10:36:23;;;;;;;6.87;2.30;;;;;;;4.53;51.66;99702.88;4973511;28;20353;-65
2022/04/04 10:38:54;;;;;;;4.97;1.40;;;;;;;4.47;52.03;99708.75;4973316;28;20274;-71
2022/04/04 10:41:25;;;;;;;12.73;3.80;;;;;;;4.45;52.37;99700.16;4973912;28;20341;-70
2022/04/04 10:43:54;;;;;;;4.37;1.60;;;;;;;4.37;52.65;99697.44;4973987;28;20656;-72
2022/04/04 10:46:22;;;;;;;11.05;1.98;;;;;;;4.28;53.18;99693.88;4957451;28;20325;-70
2022/04/04 10:48:49;;;;;;;4.87;1.77;;;;;;;4.30;53.30;99699.00;4973139;28;20039;-65
2022/04/04 10:51:18;;;;;;;13.20;2.57;;;;;;;4.35;53.56;99689.69;4973356;28;20277;-62
2022/04/04 10:53:44;;;;;;;;;;;;;;;4.41;53.54;99698.81;4973502;28;20274;-69
2022/04/04 10:56:15;;;;;;;43.00;5.17;;;;;;;4.31;55.79;99692.75;4973032;28;20286;-66
2022/04/04 10:58:41;;;;;;;4.10;2.10;;;;;;;4.18;57.99;99708.09;4973215;28;20368;-66
2022/04/04 11:01:15;;;;;;;4.20;2.10;;;;;;;4.00;59.67;99711.50;4940786;28;20344;-71
2022/04/04 11:03:42;;;;;;;7.97;2.53;;;;;;;3.97;60.17;99701.25;4973065;28;20031;-69
2022/04/04 11:09:22;;;;;;;6.75;1.52;;;;;;;3.86;62.24;99693.56;4992259;28;20313;-71
2022/04/04 11:12:15;;;;;;;9.40;3.53;;;;;;;3.84;62.28;99697.31;4989313;28;20072;-70
2022/04/04 11:14:46;;;;;;;3.70;2.03;;;;;;;3.82;63.42;99692.19;4980405;28;20436;-71
2022/04/04 11:17:13;;;;;;;5.57;2.37;;;;;;;3.90;63.54;99687.00;4980775;28;20316;-69
2022/04/04 11:20:10;;;;;;;6.17;2.37;;;;;;;4.10;63.28;99673.75;4965399;28;20285;-73
2022/04/04 11:22:46;;;;;;;6.30;3.23;;;;;;;4.58;61.29;99679.50;4969202;28;20301;-70
2022/04/04 11:25:17;;;;;;;3.53;2.57;;;;;;;4.85;59.75;99665.41;4981376;28;20773;-69
2022/04/04 11:27:48;;;;;;;4.50;2.40;;;;;;;5.07;57.69;99661.47;4981422;28;20278;-68
2022/04/04 11:30:27;;;;;;;9.40;3.53;;;;;;;5.27;57.70;99655.00;4982332;28;20333;-69
2022/04/04 11:32:59;;;;;;;5.20;2.50;;;;;;;5.57;56.21;99645.75;4978310;28;20742;-67
2022/04/04 11:35:31;;;;;;;13.20;2.70;;;;;;;5.60;53.38;99641.97;4986141;28;20284;-70
2022/04/04 11:37:56;;;;;;;17.93;3.07;;;;;;;5.60;52.62;99639.34;4981128;28;20270;-68
2022/04/04 11:40:26;;;;;;;6.83;2.60;;;;;;;5.70;51.30;99634.75;4990615;28;20297;-73
2022/04/04 11:42:52;;;;;;;20.63;4.27;;;;;;;5.71;50.50;99612.63;4989726;28;20038;-73
2022/04/04 11:45:26;;;;;;;6.47;2.77;;;;;;;5.96;49.56;99628.59;4989897;28;20278;-74